Time;durP1;ratioP1;P1;durP2;ratioP2;P2;SDS_P1;SDS_P2;PMS_P1;PMS_P2;Temp;Humidity;BMP_temperature;BMP_pressure;BME280_temperature;BME280_humidity;BME280_pressure;Samples;Min_cycle;Max_cycle;Signal;HPM_P1;HPM_P2
2022/03/07 00:02:08;;;;;;;6.35;4.85;;;1.70;90.60;;;;;;5026218;28;20788;-45
2022/03/07 00:04:34;;;;;;;6.80;5.20;;;1.60;90.00;;;;;;5011706;28;20116;-44
2022/03/07 00:07:00;;;;;;;6.85;5.50;;;1.60;90.00;;;;;;5011930;28;20105;-49
2022/03/07 00:09:25;;;;;;;5.00;4.50;;;1.60;89.30;;;;;;5027958;28;20033;-47
2022/03/07 00:11:51;;;;;;;5.13;4.35;;;1.50;89.40;;;;;;5029437;28;20334;-46
2022/03/07 00:14:17;;;;;;;9.15;4.68;;;1.50;88.50;;;;;;5011393;28;20025;-47
2022/03/07 00:16:42;;;;;;;4.35;4.00;;;1.50;88.60;;;;;;5012131;28;20033;-49
2022/03/07 00:19:08;;;;;;;4.60;4.20;;;1.40;87.80;;;;;;5011710;28;20550;-43
2022/03/07 00:21:34;;;;;;;7.22;5.07;;;1.30;87.60;;;;;;5013827;28;20290;-45
2022/03/07 00:24:00;;;;;;;5.25;4.68;;;1.30;87.90;;;;;;5028983;22;20050;-43
2022/03/07 00:26:25;;;;;;;8.65;4.53;;;1.30;88.10;;;;;;4974969;28;20418;-45
2022/03/07 00:28:51;;;;;;;5.10;4.28;;;1.20;88.10;;;;;;4975997;28;20080;-46
2022/03/07 00:31:20;;;;;;;4.60;4.18;;;1.20;88.90;;;;;;4975455;28;20019;-45
2022/03/07 00:33:46;;;;;;;4.43;3.88;;;1.20;89.20;;;;;;4975606;28;20031;-43
2022/03/07 00:36:12;;;;;;;6.15;4.15;;;1.10;88.90;;;;;;4975705;28;20073;-45
2022/03/07 00:38:38;;;;;;;4.25;3.88;;;1.10;89.50;;;;;;4976058;28;20428;-45
2022/03/07 00:41:03;;;;;;;4.15;3.75;;;1.10;90.00;;;;;;4974321;28;20031;-46
2022/03/07 00:43:29;;;;;;;4.82;4.03;;;1.20;90.10;;;;;;4975388;28;20033;-45
2022/03/07 00:45:54;;;;;;;4.90;3.92;;;1.10;90.00;;;;;;4975448;28;20034;-44
2022/03/07 00:48:20;;;;;;;3.97;3.58;;;1.10;90.10;;;;;;4975410;28;20158;-43
2022/03/07 00:50:48;;;;;;;4.03;3.72;;;1.10;89.90;;;;;;4975316;28;20035;-44
2022/03/07 00:53:17;;;;;;;4.47;4.05;;;1.00;90.10;;;;;;4974990;28;20026;-48
2022/03/07 00:55:43;;;;;;;4.15;3.45;;;1.00;90.40;;;;;;4973975;28;20023;-43
2022/03/07 00:58:09;;;;;;;5.00;4.28;;;1.00;90.10;;;;;;4975232;28;20325;-43
2022/03/07 01:00:35;;;;;;;3.60;3.30;;;1.00;90.30;;;;;;4972872;28;20069;-45
2022/03/07 01:03:02;;;;;;;5.55;3.88;;;1.00;90.40;;;;;;4974894;28;20122;-45
2022/03/07 01:05:27;;;;;;;5.15;3.47;;;0.90;90.20;;;;;;4975154;28;20149;-46
2022/03/07 01:07:53;;;;;;;5.03;4.10;;;1.00;90.20;;;;;;4974993;28;20508;-47
2022/03/07 01:10:18;;;;;;;4.35;3.88;;;1.00;90.30;;;;;;4974998;28;20023;-49
2022/03/07 01:12:44;;;;;;;3.63;3.33;;;1.00;90.40;;;;;;4975022;28;20119;-45
2022/03/07 01:15:10;;;;;;;7.00;4.05;;;0.90;90.20;;;;;;4974942;28;20030;-45
2022/03/07 01:17:37;;;;;;;7.57;3.85;;;0.90;90.30;;;;;;4973819;28;20027;-46
2022/03/07 01:20:04;;;;;;;3.85;3.55;;;0.90;90.30;;;;;;4973445;28;20073;-47
2022/03/07 01:22:30;;;;;;;4.13;3.60;;;0.90;90.40;;;;;;4974612;28;20410;-45
2022/03/07 01:24:56;;;;;;;6.30;3.78;;;0.90;90.20;;;;;;4972948;28;20039;-45
2022/03/07 01:27:21;;;;;;;3.97;3.50;;;0.90;90.30;;;;;;4973228;28;20023;-43
2022/03/07 01:29:47;;;;;;;3.75;3.42;;;0.90;90.10;;;;;;4974817;28;20739;-47
2022/03/07 01:32:12;;;;;;;5.35;3.50;;;0.90;90.30;;;;;;4974139;28;20054;-45
2022/03/07 01:34:38;;;;;;;3.25;3.00;;;0.90;90.10;;;;;;4972841;28;20386;-48
2022/03/07 01:37:03;;;;;;;6.60;3.97;;;0.90;90.00;;;;;;4973280;28;20065;-45
2022/03/07 01:39:29;;;;;;;6.10;4.43;;;0.90;89.80;;;;;;4973176;28;20101;-46
2022/03/07 01:41:55;;;;;;;6.03;4.50;;;0.80;90.00;;;;;;4974403;28;20030;-46
2022/03/07 01:44:27;;;;;;;6.05;4.10;;;0.80;89.40;;;;;;4974144;28;20031;-48
2022/03/07 01:46:53;;;;;;;5.55;4.88;;;0.80;89.50;;;;;;4974182;28;20403;-43
2022/03/07 01:49:19;;;;;;;6.10;4.32;;;0.80;89.60;;;;;;4974170;28;20019;-44
2022/03/07 01:51:46;;;;;;;5.90;4.20;;;0.70;89.60;;;;;;4974244;28;20051;-46
2022/03/07 01:54:14;;;;;;;6.05;4.35;;;0.80;89.80;;;;;;4973925;28;20015;-43
2022/03/07 01:56:42;;;;;;;8.68;4.90;;;0.80;89.20;;;;;;4974084;28;20050;-44
2022/03/07 01:59:11;;;;;;;5.43;4.80;;;0.80;89.10;;;;;;4974040;28;20019;-44
2022/03/07 02:01:37;;;;;;;6.85;5.15;;;0.80;88.70;;;;;;4973982;28;20077;-43
2022/03/07 02:04:03;;;;;;;4.93;4.45;;;0.80;88.50;;;;;;4973826;28;20027;-44
2022/03/07 02:06:29;;;;;;;7.40;5.50;;;0.80;88.60;;;;;;4972687;28;20030;-44
2022/03/07 02:08:56;;;;;;;6.93;5.28;;;0.70;88.80;;;;;;4974340;28;20081;-45
2022/03/07 02:11:22;;;;;;;5.80;5.20;;;0.70;88.80;;;;;;4973685;28;20117;-43
2022/03/07 02:13:47;;;;;;;8.65;5.22;;;0.70;88.90;;;;;;4973433;28;20215;-43
2022/03/07 02:16:14;;;;;;;7.60;5.32;;;0.70;88.40;;;;;;4972445;28;20490;-45
2022/03/07 02:18:41;;;;;;;8.52;5.03;;;0.70;88.60;;;;;;4973984;28;20563;-47
2022/03/07 02:21:11;;;;;;;6.10;5.50;;;0.60;88.90;;;;;;4973876;28;20031;-47
2022/03/07 02:23:37;;;;;;;6.65;5.53;;;0.70;88.30;;;;;;4973222;28;20026;-45
2022/03/07 02:26:11;;;;;;;8.32;5.38;;;0.60;88.50;;;;;;4973694;28;20050;-45
2022/03/07 02:28:39;;;;;;;10.18;6.35;;;0.60;88.40;;;;;;4972127;28;20117;-45
2022/03/07 02:31:04;;;;;;;7.97;5.75;;;0.60;88.50;;;;;;4973138;28;20026;-46
2022/03/07 02:33:30;;;;;;;9.95;5.53;;;0.60;88.70;;;;;;4973219;28;20037;-45
2022/03/07 02:35:56;;;;;;;8.27;6.18;;;0.60;88.40;;;;;;4973561;28;20106;-44
2022/03/07 02:38:22;;;;;;;5.78;5.03;;;0.70;88.60;;;;;;4973349;28;20443;-43
2022/03/07 02:40:48;;;;;;;8.02;6.03;;;0.70;88.60;;;;;;4973367;28;20101;-43
2022/03/07 02:43:14;;;;;;;7.65;5.80;;;0.70;88.20;;;;;;4973035;28;20058;-44
2022/03/07 02:45:40;;;;;;;8.88;6.35;;;0.60;88.30;;;;;;4973281;28;20033;-46
2022/03/07 02:48:06;;;;;;;9.95;5.72;;;0.60;88.10;;;;;;4973162;28;20125;-47
2022/03/07 02:50:31;;;;;;;7.88;5.82;;;0.60;88.60;;;;;;4973212;28;20065;-48
2022/03/07 02:52:56;;;;;;;7.10;5.75;;;0.50;88.60;;;;;;4972939;28;20552;-45
2022/03/07 02:55:22;;;;;;;6.80;6.10;;;0.50;88.60;;;;;;4973193;28;20035;-45
2022/03/07 02:57:48;;;;;;;7.38;5.90;;;0.60;88.00;;;;;;4971850;28;20049;-44
2022/03/07 03:00:14;;;;;;;9.18;6.75;;;0.50;88.10;;;;;;4971755;28;20038;-44
2022/03/07 03:02:39;;;;;;;6.90;5.72;;;0.50;87.90;;;;;;4973095;28;20042;-42
2022/03/07 03:05:05;;;;;;;7.07;6.30;;;0.50;87.70;;;;;;4972731;28;20027;-44
2022/03/07 03:07:31;;;;;;;8.57;6.43;;;0.50;88.40;;;;;;4972923;28;20120;-43
2022/03/07 03:09:56;;;;;;;8.68;6.72;;;0.50;87.70;;;;;;4973075;28;20022;-43
2022/03/07 03:12:24;;;;;;;8.20;6.28;;;0.60;87.70;;;;;;4972940;28;20031;-46
2022/03/07 03:14:50;;;;;;;8.80;6.82;;;0.60;87.50;;;;;;4972646;28;20098;-45
2022/03/07 03:17:16;;;;;;;11.18;6.82;;;0.50;87.00;;;;;;4972844;28;20435;-47
2022/03/07 03:19:41;;;;;;;8.98;7.07;;;0.60;87.40;;;;;;4972789;28;20038;-45
2022/03/07 03:22:07;;;;;;;8.40;6.82;;;0.50;87.10;;;;;;4972577;28;20495;-46
2022/03/07 03:24:33;;;;;;;9.50;7.45;;;0.50;87.00;;;;;;4972243;28;20515;-45
2022/03/07 03:26:58;;;;;;;10.88;6.82;;;0.60;87.10;;;;;;4971577;28;20035;-45
2022/03/07 03:29:24;;;;;;;8.57;6.90;;;0.50;87.10;;;;;;4972649;28;20038;-45
2022/03/07 03:31:49;;;;;;;11.60;7.82;;;0.50;86.40;;;;;;4972267;28;20018;-47
2022/03/07 03:34:15;;;;;;;13.45;7.78;;;0.50;86.60;;;;;;4972193;28;20045;-45
2022/03/07 03:36:41;;;;;;;11.75;7.95;;;0.50;86.80;;;;;;4972710;28;20386;-44
2022/03/07 03:39:06;;;;;;;12.05;7.90;;;0.50;87.10;;;;;;4972651;28;20062;-45
2022/03/07 03:41:32;;;;;;;9.68;6.60;;;0.50;86.80;;;;;;4972600;28;20023;-47
2022/03/07 03:43:57;;;;;;;10.68;8.25;;;0.50;86.10;;;;;;4972341;28;20556;-44
2022/03/07 03:46:23;;;;;;;9.95;8.25;;;0.50;86.00;;;;;;4973177;28;20070;-46
2022/03/07 03:48:48;;;;;;;10.45;7.70;;;0.50;86.40;;;;;;4972463;28;20058;-46
2022/03/07 03:51:14;;;;;;;10.82;8.10;;;0.50;86.50;;;;;;4972484;28;20487;-46
2022/03/07 03:53:39;;;;;;;10.35;7.80;;;0.50;86.80;;;;;;4972547;28;20023;-43
2022/03/07 03:56:05;;;;;;;10.80;7.43;;;0.50;86.40;;;;;;4972502;28;20026;-46
2022/03/07 03:58:31;;;;;;;13.73;8.48;;;0.50;86.60;;;;;;4972959;28;20029;-44
2022/03/07 04:00:56;;;;;;;9.25;7.72;;;0.50;86.20;;;;;;4972560;28;20512;-45
2022/03/07 04:03:22;;;;;;;10.00;7.63;;;0.50;86.60;;;;;;4970766;28;20031;-47
2022/03/07 04:05:47;;;;;;;11.57;8.65;;;0.40;86.80;;;;;;4972774;28;20557;-47
2022/03/07 04:08:13;;;;;;;9.93;8.05;;;0.40;87.10;;;;;;4972646;28;20027;-44
2022/03/07 04:10:38;;;;;;;12.85;8.00;;;0.40;87.10;;;;;;4971218;28;20027;-41
2022/03/07 04:13:04;;;;;;;13.52;8.70;;;0.40;87.20;;;;;;4972931;28;20027;-47
2022/03/07 04:15:29;;;;;;;12.93;8.18;;;0.40;87.00;;;;;;4972532;28;20065;-44
2022/03/07 04:17:55;;;;;;;12.38;9.40;;;0.40;86.80;;;;;;4972782;28;20065;-44
2022/03/07 04:20:20;;;;;;;14.50;10.00;;;0.30;86.70;;;;;;4972502;28;20111;-44
2022/03/07 04:22:46;;;;;;;11.70;8.57;;;0.30;87.00;;;;;;4972424;28;20034;-44
2022/03/07 04:25:12;;;;;;;12.75;8.82;;;0.20;87.00;;;;;;4970806;28;20042;-44
2022/03/07 04:27:38;;;;;;;14.27;9.95;;;0.20;87.10;;;;;;4972650;28;20058;-44
2022/03/07 04:30:07;;;;;;;12.57;9.00;;;0.20;87.20;;;;;;4972261;28;20097;-43
2022/03/07 04:32:36;;;;;;;14.52;10.02;;;0.10;87.30;;;;;;4972208;28;20406;-47
2022/03/07 04:35:04;;;;;;;14.75;10.45;;;0.10;87.40;;;;;;4972865;28;20015;-46
2022/03/07 04:37:31;;;;;;;18.75;10.75;;;0.00;87.70;;;;;;4975584;28;20027;-47
2022/03/07 04:39:57;;;;;;;13.55;9.95;;;0.00;88.30;;;;;;4975513;28;20034;-47
2022/03/07 04:42:22;;;;;;;14.80;9.98;;;-0.10;87.40;;;;;;4975476;28;20031;-45
2022/03/07 04:44:48;;;;;;;14.82;10.68;;;-0.10;87.70;;;;;;4975133;28;20034;-44
2022/03/07 04:47:13;;;;;;;14.05;10.15;;;-0.10;87.80;;;;;;4975309;28;20109;-47
2022/03/07 04:49:39;;;;;;;15.40;10.02;;;-0.20;87.50;;;;;;4975240;28;20101;-48
2022/03/07 04:52:05;;;;;;;15.45;11.25;;;-0.30;87.90;;;;;;4975260;28;20027;-43
2022/03/07 04:54:30;;;;;;;15.38;11.30;;;-0.30;87.50;;;;;;4974934;28;20031;-42
2022/03/07 04:56:56;;;;;;;15.27;9.80;;;-0.20;87.60;;;;;;4975546;28;20035;-47
2022/03/07 04:59:22;;;;;;;15.25;10.88;;;-0.30;87.60;;;;;;4975073;28;20027;-44
2022/03/07 05:01:47;;;;;;;15.40;9.85;;;-0.30;88.00;;;;;;4975115;28;20102;-43
2022/03/07 05:04:12;;;;;;;14.70;10.77;;;-0.30;87.70;;;;;;4974695;28;20030;-44
2022/03/07 05:06:38;;;;;;;18.10;10.95;;;-0.40;87.70;;;;;;4974944;28;20056;-44
2022/03/07 05:09:04;;;;;;;15.63;10.23;;;-0.30;87.90;;;;;;4973692;28;20026;-45
2022/03/07 05:11:29;;;;;;;19.17;10.93;;;-0.30;88.00;;;;;;4974760;28;20064;-47
2022/03/07 05:13:55;;;;;;;16.90;11.55;;;-0.30;88.20;;;;;;4974622;28;20027;-47
2022/03/07 05:16:20;;;;;;;14.88;10.00;;;-0.30;88.20;;;;;;4974871;28;20019;-44
2022/03/07 05:18:46;;;;;;;14.27;10.43;;;-0.40;88.40;;;;;;4974942;28;20069;-43
2022/03/07 05:21:11;;;;;;;14.32;10.15;;;-0.40;88.40;;;;;;4974833;28;20077;-46
2022/03/07 05:23:38;;;;;;;15.75;10.15;;;-0.40;88.60;;;;;;4974349;28;20035;-45
2022/03/07 05:26:04;;;;;;;15.32;11.60;;;-0.40;88.80;;;;;;4974221;28;20030;-44
2022/03/07 05:28:29;;;;;;;18.70;11.45;;;-0.40;88.80;;;;;;4975299;28;20142;-49
2022/03/07 05:30:55;;;;;;;17.08;11.80;;;-0.40;88.90;;;;;;4974445;28;20143;-45
2022/03/07 05:33:21;;;;;;;16.77;11.65;;;-0.40;88.60;;;;;;4974500;28;20027;-46
2022/03/07 05:35:46;;;;;;;16.45;12.27;;;-0.40;88.90;;;;;;4974841;28;20461;-44
2022/03/07 05:38:12;;;;;;;16.45;10.85;;;-0.40;88.90;;;;;;4975020;28;20022;-49
2022/03/07 05:40:38;;;;;;;17.05;10.75;;;-0.40;89.10;;;;;;4973361;28;20354;-44
2022/03/07 05:43:03;;;;;;;19.95;11.90;;;-0.40;89.00;;;;;;4974544;28;20502;-42
2022/03/07 05:45:29;;;;;;;16.13;11.55;;;-0.40;89.00;;;;;;4974330;28;20030;-44
2022/03/07 05:47:54;;;;;;;21.98;12.57;;;-0.30;89.00;;;;;;4974956;28;20391;-46
2022/03/07 05:50:20;;;;;;;18.35;12.50;;;-0.30;88.80;;;;;;4973100;28;20263;-43
2022/03/07 05:52:45;;;;;;;16.05;11.13;;;-0.30;88.90;;;;;;4974122;28;20023;-44
2022/03/07 05:55:11;;;;;;;18.23;11.70;;;-0.30;88.80;;;;;;4973767;28;20081;-47
2022/03/07 05:57:37;;;;;;;15.70;10.70;;;-0.30;89.10;;;;;;4974604;28;20023;-43
2022/03/07 06:00:07;;;;;;;17.88;12.52;;;-0.20;89.20;;;;;;4974113;28;20031;-43
2022/03/07 06:02:32;;;;;;;17.88;12.30;;;-0.20;88.80;;;;;;4974415;28;20049;-44
2022/03/07 06:04:58;;;;;;;16.00;11.73;;;-0.20;88.70;;;;;;4973300;28;20022;-44
2022/03/07 06:07:23;;;;;;;17.48;11.82;;;-0.20;88.70;;;;;;4972611;28;20027;-46
2022/03/07 06:09:49;;;;;;;17.15;12.80;;;-0.20;89.00;;;;;;4973905;28;20066;-45
2022/03/07 06:12:14;;;;;;;15.43;11.73;;;-0.10;89.10;;;;;;4974245;28;20558;-44
2022/03/07 06:14:40;;;;;;;16.13;11.20;;;-0.10;89.00;;;;;;4972467;28;20023;-46
2022/03/07 06:17:05;;;;;;;19.55;12.85;;;0.00;88.70;;;;;;4973850;28;20043;-45
2022/03/07 06:19:32;;;;;;;16.25;11.95;;;0.00;88.90;;;;;;4973897;28;20426;-49
2022/03/07 06:21:57;;;;;;;15.50;11.73;;;0.10;88.60;;;;;;4973850;28;20027;-44
2022/03/07 06:24:23;;;;;;;22.05;12.32;;;0.20;88.10;;;;;;4994346;23;20116;-46
2022/03/07 06:26:48;;;;;;;24.05;12.77;;;0.30;87.60;;;;;;5012708;28;20116;-48
2022/03/07 06:29:14;;;;;;;14.63;11.48;;;0.40;87.40;;;;;;5012944;28;20022;-39
2022/03/07 06:31:39;;;;;;;17.77;11.15;;;0.50;86.60;;;;;;5012272;28;20116;-43
2022/03/07 06:34:05;;;;;;;21.95;11.30;;;0.50;86.70;;;;;;5012808;28;20032;-46
2022/03/07 06:36:30;;;;;;;17.13;12.10;;;0.70;85.90;;;;;;5011914;28;20029;-45
2022/03/07 06:38:56;;;;;;;15.77;11.43;;;0.90;85.40;;;;;;5012601;28;20058;-44
2022/03/07 06:41:22;;;;;;;18.10;12.13;;;1.00;84.90;;;;;;5012550;28;20026;-45
2022/03/07 06:43:47;;;;;;;17.77;11.77;;;1.10;84.10;;;;;;5012660;28;20079;-48
2022/03/07 06:46:12;;;;;;;15.52;11.18;;;1.20;83.80;;;;;;5012384;28;20041;-47
2022/03/07 06:48:39;;;;;;;20.30;11.52;;;1.30;83.30;;;;;;5012306;28;20026;-41
2022/03/07 06:51:05;;;;;;;17.00;11.82;;;1.50;83.80;;;;;;5012197;28;20044;-50
2022/03/07 06:53:31;;;;;;;12.98;10.65;;;1.70;81.90;;;;;;5012012;28;20030;-48
2022/03/07 06:55:56;;;;;;;16.85;10.05;;;1.80;80.60;;;;;;5013398;28;20069;-44
2022/03/07 06:58:22;;;;;;;13.23;11.45;;;1.90;80.50;;;;;;5012946;28;20030;-45
2022/03/07 07:00:47;;;;;;;18.40;10.55;;;1.90;79.60;;;;;;5012359;28;20056;-38
2022/03/07 07:03:13;;;;;;;18.38;11.02;;;1.80;80.30;;;;;;5012174;28;20034;-47
2022/03/07 07:05:38;;;;;;;16.17;10.60;;;1.90;79.60;;;;;;5012215;28;20482;-45
2022/03/07 07:08:04;;;;;;;12.30;10.02;;;1.80;79.00;;;;;;5012684;28;20029;-39
2022/03/07 07:10:30;;;;;;;16.95;9.93;;;1.90;79.30;;;;;;5012138;28;20018;-42
2022/03/07 07:12:55;;;;;;;12.60;9.93;;;2.10;78.40;;;;;;5012217;28;20080;-43
2022/03/07 07:15:21;;;;;;;13.35;8.85;;;2.20;78.00;;;;;;5012350;28;20025;-46
2022/03/07 07:17:46;;;;;;;12.45;9.68;;;2.10;77.00;;;;;;5012245;28;20026;-46
2022/03/07 07:20:12;;;;;;;11.32;9.00;;;2.20;76.80;;;;;;5010750;28;20504;-40
2022/03/07 07:22:39;;;;;;;12.23;9.10;;;2.30;77.80;;;;;;5011008;28;20112;-45
2022/03/07 07:25:08;;;;;;;11.82;8.38;;;2.90;80.50;;;;;;5011676;28;20046;-46
2022/03/07 07:27:34;;;;;;;13.27;8.85;;;3.10;77.20;;;;;;5011947;28;20030;-47
2022/03/07 07:30:00;;;;;;;9.27;7.40;;;3.20;73.50;;;;;;5011229;28;20126;-40
2022/03/07 07:32:25;;;;;;;9.18;8.25;;;3.30;72.00;;;;;;5010456;28;20022;-46
2022/03/07 07:34:51;;;;;;;12.05;7.40;;;3.50;84.10;;;;;;5011506;28;20497;-44
2022/03/07 07:37:16;;;;;;;11.70;7.50;;;3.50;74.10;;;;;;5011675;28;20026;-50
2022/03/07 07:39:42;;;;;;;10.00;7.65;;;3.60;77.10;;;;;;5011643;28;20066;-49
2022/03/07 07:42:08;;;;;;;17.20;10.60;;;3.70;69.60;;;;;;5010237;28;20636;-42
2022/03/07 07:44:33;;;;;;;16.60;11.07;;;3.90;69.10;;;;;;5011222;28;20033;-45
2022/03/07 07:46:59;;;;;;;11.45;8.57;;;3.80;68.70;;;;;;5007856;28;20105;-46
2022/03/07 07:49:25;;;;;;;9.30;7.53;;;3.50;69.20;;;;;;5021935;28;20025;-45
2022/03/07 07:51:51;;;;;;;9.73;7.82;;;2.80;70.70;;;;;;5031260;28;20057;-44
2022/03/07 07:54:17;;;;;;;12.65;8.15;;;2.50;72.50;;;;;;5012538;28;20022;-45
2022/03/07 07:56:43;;;;;;;7.07;6.38;;;2.10;72.80;;;;;;5009767;28;20048;-48
2022/03/07 07:59:11;;;;;;;9.68;7.15;;;1.90;82.20;;;;;;5023387;28;20029;-46
2022/03/07 08:01:37;;;;;;;24.48;9.38;;;1.70;77.70;;;;;;5020904;28;20084;-47
2022/03/07 08:04:03;;;;;;;7.63;6.82;;;1.60;74.60;;;;;;5014986;28;20022;-41
2022/03/07 08:06:28;;;;;;;6.75;6.05;;;1.70;82.00;;;;;;5011147;28;20022;-43
2022/03/07 08:08:54;;;;;;;8.35;7.45;;;1.40;87.20;;;;;;5011952;28;20029;-45
2022/03/07 08:11:19;;;;;;;9.95;6.80;;;1.60;90.90;;;;;;5012980;28;20108;-42
2022/03/07 08:13:45;;;;;;;8.25;6.65;;;1.50;91.90;;;;;;5023582;28;20397;-42
2022/03/07 08:16:11;;;;;;;9.65;7.28;;;1.60;92.20;;;;;;5021300;28;20018;-40
2022/03/07 08:18:36;;;;;;;7.25;6.53;;;1.50;92.20;;;;;;5018650;28;20037;-50
2022/03/07 08:21:02;;;;;;;7.82;7.03;;;1.60;90.10;;;;;;5027408;28;20064;-49
2022/03/07 08:23:28;;;;;;;6.70;5.97;;;1.70;89.20;;;;;;5033196;28;20022;-47
2022/03/07 08:25:53;;;;;;;6.90;5.82;;;1.70;89.20;;;;;;5034610;28;20061;-47
2022/03/07 08:28:19;;;;;;;11.52;5.60;;;1.60;74.40;;;;;;5016622;28;20030;-47
2022/03/07 08:30:45;;;;;;;11.45;6.22;;;1.60;73.80;;;;;;5014378;28;20037;-41
2022/03/07 08:33:10;;;;;;;7.72;6.28;;;1.50;73.80;;;;;;5014069;28;20057;-45
2022/03/07 08:35:36;;;;;;;5.72;5.15;;;1.50;74.30;;;;;;5013353;28;20029;-47
2022/03/07 08:38:02;;;;;;;5.25;4.72;;;1.50;74.70;;;;;;5014641;28;20057;-48
2022/03/07 08:40:28;;;;;;;23.55;6.65;;;1.50;73.80;;;;;;5014640;28;20037;-41
2022/03/07 08:42:54;;;;;;;5.45;4.95;;;1.50;74.10;;;;;;5013940;28;20026;-49
2022/03/07 08:45:22;;;;;;;6.85;5.43;;;1.50;73.90;;;;;;5014437;28;20022;-46
2022/03/07 08:47:47;;;;;;;13.02;6.03;;;1.60;74.40;;;;;;5014310;28;20030;-47
2022/03/07 08:50:15;;;;;;;5.85;5.30;;;1.50;74.00;;;;;;5014301;28;20026;-46
2022/03/07 08:52:40;;;;;;;6.47;5.90;;;1.60;73.70;;;;;;5014254;28;20025;-46
2022/03/07 08:55:07;;;;;;;6.50;5.45;;;1.50;73.50;;;;;;5014204;28;20026;-47
2022/03/07 08:57:33;;;;;;;6.60;5.75;;;1.50;74.20;;;;;;5014239;28;20037;-43
2022/03/07 08:59:59;;;;;;;8.10;6.10;;;1.60;73.80;;;;;;5014022;28;20026;-40
2022/03/07 09:02:25;;;;;;;6.85;6.15;;;1.60;73.90;;;;;;5014221;28;20109;-46
2022/03/07 09:04:50;;;;;;;7.55;5.22;;;1.60;74.00;;;;;;5013987;28;20076;-50
2022/03/07 09:07:16;;;;;;;6.25;5.38;;;1.70;74.20;;;;;;5014262;28;20045;-49
2022/03/07 09:09:41;;;;;;;6.80;6.03;;;1.70;74.30;;;;;;5014143;28;20394;-45
2022/03/07 09:12:08;;;;;;;6.90;5.80;;;1.70;73.90;;;;;;5014150;28;20058;-47
2022/03/07 09:14:33;;;;;;;7.25;5.30;;;1.80;73.70;;;;;;5013652;28;20018;-47
2022/03/07 09:16:59;;;;;;;9.05;6.72;;;1.80;73.90;;;;;;5014578;28;20164;-46
2022/03/07 09:19:24;;;;;;;6.78;6.07;;;1.90;74.30;;;;;;5014116;28;20030;-47
2022/03/07 09:21:50;;;;;;;6.22;5.65;;;1.90;73.40;;;;;;5013297;28;20033;-48
2022/03/07 09:24:15;;;;;;;9.45;5.88;;;2.00;73.60;;;;;;5013635;28;20398;-44
2022/03/07 09:26:41;;;;;;;8.75;6.07;;;2.20;72.80;;;;;;5015009;28;20152;-46
2022/03/07 09:29:07;;;;;;;6.85;5.75;;;2.80;71.70;;;;;;5014134;28;20026;-45
2022/03/07 09:31:33;;;;;;;6.18;5.55;;;3.80;69.40;;;;;;5013898;28;20505;-41
2022/03/07 09:33:58;;;;;;;5.72;5.18;;;4.50;66.30;;;;;;5013709;28;20026;-42
2022/03/07 09:36:24;;;;;;;6.68;5.80;;;5.00;66.10;;;;;;5012715;28;20384;-48
2022/03/07 09:38:50;;;;;;;7.97;5.85;;;5.40;63.90;;;;;;5013806;28;20062;-46
2022/03/07 09:41:17;;;;;;;6.10;5.13;;;5.80;64.00;;;;;;5013537;28;20029;-44
2022/03/07 09:43:44;;;;;;;7.93;5.80;;;6.20;62.40;;;;;;5013080;28;20131;-40
2022/03/07 09:46:10;;;;;;;6.22;5.47;;;6.50;61.00;;;;;;5013467;28;20494;-39
2022/03/07 09:48:36;;;;;;;6.88;5.35;;;6.50;61.40;;;;;;5013796;28;20029;-44
2022/03/07 09:51:02;;;;;;;10.32;4.97;;;6.20;60.90;;;;;;5015579;28;20239;-39
2022/03/07 09:53:27;;;;;;;8.52;6.22;;;6.40;61.70;;;;;;5014566;28;20053;-40
2022/03/07 09:55:53;;;;;;;6.47;5.45;;;6.90;60.80;;;;;;5016231;28;20045;-44
2022/03/07 09:58:18;;;;;;;8.10;5.05;;;7.10;59.80;;;;;;5015297;28;20053;-42
2022/03/07 10:00:44;;;;;;;6.03;5.15;;;7.00;59.40;;;;;;5012971;28;20040;-44
2022/03/07 10:03:13;;;;;;;6.43;5.63;;;6.10;60.70;;;;;;5008290;28;20101;-50
2022/03/07 10:05:45;;;;;;;8.95;6.15;;;5.90;61.20;;;;;;5017709;28;20029;-39
2022/03/07 10:08:20;;;;;;;6.63;6.03;;;5.60;62.40;;;;;;5021179;28;20031;-46
2022/03/07 10:10:46;;;;;;;7.82;5.60;;;5.60;62.50;;;;;;5032831;28;20108;-44
2022/03/07 10:13:14;;;;;;;7.10;5.68;;;5.40;63.10;;;;;;5019171;28;20107;-47
2022/03/07 10:15:41;;;;;;;6.00;5.40;;;5.80;63.20;;;;;;5012592;28;20076;-46
2022/03/07 10:18:17;;;;;;;6.50;5.90;;;5.90;62.20;;;;;;5029959;28;20028;-45
2022/03/07 10:20:57;;;;;;;8.02;6.10;;;6.00;61.90;;;;;;5026222;28;20163;-45
2022/03/07 10:23:27;;;;;;;7.65;5.68;;;5.40;62.90;;;;;;5012926;28;20029;-43
2022/03/07 10:26:07;;;;;;;7.10;6.15;;;5.30;63.00;;;;;;5012613;28;20489;-44
2022/03/07 10:28:34;;;;;;;7.47;6.05;;;5.50;63.20;;;;;;5012590;28;20532;-44
2022/03/07 10:31:10;;;;;;;9.25;6.30;;;5.20;63.60;;;;;;5012555;28;20022;-43
2022/03/07 10:33:36;;;;;;;9.55;5.93;;;5.10;64.10;;;;;;5013051;28;20417;-44
2022/03/07 10:36:01;;;;;;;6.45;5.85;;;4.70;64.70;;;;;;5011814;28;20037;-38
2022/03/07 10:38:28;;;;;;;8.18;6.55;;;4.90;65.00;;;;;;5012546;28;20454;-45
2022/03/07 10:40:55;;;;;;;7.15;6.53;;;5.00;64.40;;;;;;5009966;28;20049;-45
2022/03/07 10:43:21;;;;;;;11.95;6.07;;;5.20;65.10;;;;;;5021248;28;20404;-43
2022/03/07 10:45:49;;;;;;;9.50;6.53;;;5.20;64.70;;;;;;5030788;28;20052;-42
2022/03/07 10:48:16;;;;;;;7.80;6.72;;;4.90;64.80;;;;;;5014795;28;20367;-38
2022/03/07 10:50:48;;;;;;;6.57;5.90;;;4.80;64.70;;;;;;5012390;28;20026;-49
2022/03/07 10:53:14;;;;;;;8.65;6.28;;;4.70;65.00;;;;;;5012248;28;20033;-49
2022/03/07 10:55:40;;;;;;;7.57;6.13;;;4.70;65.10;;;;;;5011663;28;20034;-49
2022/03/07 10:58:11;;;;;;;10.65;6.13;;;4.60;66.10;;;;;;5011642;28;20037;-38
2022/03/07 11:00:56;;;;;;;7.22;6.32;;;4.60;66.30;;;;;;5011570;28;20351;-38
2022/03/07 11:03:30;;;;;;;8.48;6.80;;;4.50;65.70;;;;;;5009839;28;20405;-45
2022/03/07 11:05:57;;;;;;;7.57;6.30;;;4.50;66.80;;;;;;5001151;28;20525;-48
2022/03/07 11:08:24;;;;;;;6.93;6.18;;;4.60;65.80;;;;;;5001306;28;20445;-44
2022/03/07 11:10:52;;;;;;;6.85;6.22;;;4.60;66.00;;;;;;5026977;28;20358;-44
2022/03/07 11:13:19;;;;;;;9.35;5.78;;;4.60;66.60;;;;;;5029307;28;20499;-38
2022/03/07 11:15:46;;;;;;;8.07;6.25;;;4.60;66.60;;;;;;5011887;28;20053;-47
2022/03/07 11:18:14;;;;;;;8.45;6.38;;;4.40;67.10;;;;;;5011799;28;20249;-44
2022/03/07 11:20:41;;;;;;;7.70;6.53;;;4.40;67.50;;;;;;5012182;28;20033;-44
2022/03/07 11:23:08;;;;;;;8.13;6.60;;;4.40;66.60;;;;;;5012309;28;20030;-49
2022/03/07 11:25:34;;;;;;;7.25;6.00;;;4.30;67.20;;;;;;5014505;28;20408;-43
2022/03/07 11:28:00;;;;;;;7.75;6.40;;;4.50;67.30;;;;;;5031768;28;20030;-38
2022/03/07 11:30:33;;;;;;;9.15;6.70;;;4.60;67.30;;;;;;5032562;28;20446;-45
2022/03/07 11:33:09;;;;;;;11.30;6.18;;;4.70;66.80;;;;;;5018864;28;20466;-44
2022/03/07 11:35:35;;;;;;;13.25;9.18;;;4.60;67.10;;;;;;5012918;28;20057;-46
2022/03/07 11:38:16;;;;;;;10.07;6.55;;;4.60;66.90;;;;;;5012942;28;20060;-40
2022/03/07 11:41:11;;;;;;;6.95;6.18;;;4.60;67.20;;;;;;5012287;28;20064;-41
2022/03/07 11:43:52;;;;;;;7.28;6.57;;;4.50;67.70;;;;;;4992184;28;20038;-38
2022/03/07 11:46:23;;;;;;;8.00;7.20;;;4.50;67.90;;;;;;4996062;28;20398;-49
2022/03/07 11:48:49;;;;;;;6.72;6.10;;;4.40;67.40;;;;;;5019030;28;20033;-42
2022/03/07 11:51:19;;;;;;;9.27;6.85;;;4.30;67.90;;;;;;5035490;28;20021;-48
2022/03/07 11:53:47;;;;;;;9.05;7.15;;;4.30;68.30;;;;;;5024548;28;20441;-38
2022/03/07 11:56:23;;;;;;;7.45;6.75;;;4.20;68.10;;;;;;5028967;28;20121;-38
2022/03/07 11:58:54;;;;;;;7.90;7.10;;;4.30;68.60;;;;;;5012914;28;20030;-45
2022/03/07 12:01:22;;;;;;;8.65;6.97;;;4.50;67.80;;;;;;5030772;28;20056;-47
2022/03/07 12:03:48;;;;;;;8.32;7.28;;;4.50;67.90;;;;;;5014479;28;20022;-38
2022/03/07 12:06:16;;;;;;;7.38;6.38;;;4.30;67.80;;;;;;5022324;28;20106;-42
2022/03/07 12:08:42;;;;;;;10.52;7.07;;;4.20;68.60;;;;;;5026707;28;20029;-44
2022/03/07 12:11:09;;;;;;;7.53;6.68;;;4.20;68.40;;;;;;5021271;28;20021;-43
2022/03/07 12:13:46;;;;;;;9.00;7.50;;;4.10;69.20;;;;;;5022114;28;20179;-43
2022/03/07 12:16:22;;;;;;;8.13;6.95;;;4.10;68.50;;;;;;5030805;28;20264;-40
2022/03/07 12:18:48;;;;;;;9.60;7.20;;;4.10;68.90;;;;;;5030607;28;20076;-38
2022/03/07 12:21:13;;;;;;;9.60;6.85;;;4.20;69.20;;;;;;5013801;28;20567;-44
2022/03/07 12:23:41;;;;;;;8.15;7.00;;;4.10;69.10;;;;;;5013357;28;20026;-48
2022/03/07 12:26:09;;;;;;;9.38;6.85;;;4.20;69.40;;;;;;5033199;23;20041;-42
2022/03/07 12:28:43;;;;;;;7.60;6.47;;;4.20;69.40;;;;;;5017095;28;20112;-42
2022/03/07 12:31:09;;;;;;;10.82;6.55;;;4.30;69.70;;;;;;5003397;28;20031;-42
2022/03/07 12:33:35;;;;;;;9.13;6.15;;;4.40;68.80;;;;;;5002137;28;20026;-41
2022/03/07 12:36:02;;;;;;;7.13;6.43;;;4.40;68.80;;;;;;5014094;28;20084;-41
2022/03/07 12:38:30;;;;;;;7.82;6.55;;;4.50;69.20;;;;;;5013172;28;20048;-41
2022/03/07 12:40:58;;;;;;;7.68;6.13;;;4.50;68.70;;;;;;5009546;28;20030;-41
2022/03/07 12:43:25;;;;;;;8.82;6.43;;;4.50;69.20;;;;;;5028899;28;20026;-42
2022/03/07 12:45:50;;;;;;;7.10;6.40;;;4.60;69.40;;;;;;5032951;28;20028;-41
2022/03/07 12:48:16;;;;;;;6.90;6.20;;;4.60;69.20;;;;;;5013327;28;20116;-44